createdAt,value
2019-05-05T00:01:28.794Z,4.10
2019-05-05T00:04:14.915Z,4.10
2019-05-05T00:19:33.233Z,4.20
2019-05-05T00:24:29.014Z,4.10
2019-05-05T02:32:11.587Z,3.80
2019-05-05T02:34:41.867Z,3.90
2019-05-05T02:37:10.483Z,3.90
2019-05-05T02:39:45.035Z,3.70
2019-05-05T02:42:10.034Z,3.70
2019-05-05T02:54:44.989Z,3.80
2019-05-05T02:59:44.937Z,3.80
2019-05-05T03:07:16.078Z,3.90
2019-05-05T03:17:14.502Z,3.70
2019-05-05T03:19:44.570Z,3.70
2019-05-05T03:22:14.365Z,3.90
2019-05-05T03:24:44.686Z,3.80
2019-05-05T03:27:14.341Z,3.70
2019-05-05T03:29:44.227Z,3.70
2019-05-05T03:32:16.114Z,3.80
2019-05-05T03:34:44.515Z,3.70
2019-05-05T03:37:14.642Z,3.50
2019-05-05T03:39:45.274Z,3.80
2019-05-05T03:42:18.602Z,3.70
2019-05-05T03:44:49.528Z,3.90
2019-05-05T03:47:18.174Z,3.90
2019-05-05T03:49:46.859Z,3.80
2019-05-05T03:52:15.502Z,3.90
2019-05-05T03:54:44.991Z,3.60
2019-05-05T03:57:14.264Z,3.80
2019-05-05T03:59:44.438Z,3.80
2019-05-05T04:02:14.869Z,3.60
2019-05-05T04:04:51.108Z,3.70
2019-05-05T04:07:19.718Z,3.70
2019-05-05T04:12:17.377Z,3.80
2019-05-05T04:14:46.064Z,3.70
2019-05-05T04:17:33.660Z,3.70
2019-05-05T04:20:19.207Z,3.70
2019-05-05T04:25:16.062Z,3.90
2019-05-05T04:27:44.637Z,3.80
2019-05-05T04:30:14.220Z,4.30
2019-05-05T04:32:43.970Z,4.10
2019-05-05T04:35:14.103Z,4.10
2019-05-05T04:37:43.692Z,3.60
2019-05-05T04:40:14.798Z,3.90
2019-05-05T04:42:44.125Z,3.90
2019-05-05T04:45:14.720Z,4.10
2019-05-05T04:47:50.989Z,3.90
2019-05-05T04:50:39.409Z,4.20
2019-05-05T04:55:37.838Z,4.20
2019-05-05T04:58:06.434Z,4.10
2019-05-05T05:00:34.970Z,4.10
2019-05-05T05:03:08.326Z,4.20
2019-05-05T05:05:53.756Z,4.20
2019-05-05T05:08:24.604Z,4.30
2019-05-05T05:10:54.288Z,4.20
2019-05-05T05:13:24.453Z,4.30
2019-05-05T05:15:53.976Z,4.20
2019-05-05T05:20:54.659Z,4.30
2019-05-05T05:23:24.489Z,4.30
2019-05-05T05:25:54.439Z,4.10
2019-05-05T05:28:23.674Z,4.20
2019-05-05T05:30:54.386Z,4.10
2019-05-05T05:33:23.886Z,4.00
2019-05-05T05:35:54.544Z,4.20
2019-05-05T05:38:24.211Z,4.00
2019-05-05T05:43:25.375Z,4.10
2019-05-05T05:46:01.164Z,4.10
2019-05-05T05:48:34.357Z,4.30
2019-05-05T05:51:10.021Z,4.30
2019-05-05T05:56:06.801Z,4.30
2019-05-05T05:58:35.354Z,4.70
2019-05-05T06:06:04.745Z,4.70
2019-05-05T06:08:34.694Z,4.70
2019-05-05T06:11:04.439Z,4.60
2019-05-05T06:13:33.636Z,4.70
2019-05-05T06:16:04.322Z,4.90
2019-05-05T06:18:34.460Z,5.10
2019-05-05T06:21:04.502Z,5.30
2019-05-05T06:23:34.388Z,5.50
2019-05-05T06:26:06.644Z,5.50
2019-05-05T06:28:34.199Z,5.70
2019-05-05T06:31:04.740Z,5.90
2019-05-05T06:33:34.727Z,5.90
2019-05-05T06:36:03.847Z,6.40
2019-05-05T06:38:34.366Z,6.10
2019-05-05T06:41:07.406Z,6.30
2019-05-05T06:43:54.329Z,6.40
2019-05-05T06:46:34.330Z,6.40
2019-05-05T06:49:04.363Z,6.50
2019-05-05T06:51:33.542Z,6.70
2019-05-05T06:54:04.483Z,6.70
2019-05-05T06:56:34.177Z,6.90
2019-05-05T06:59:04.416Z,7.00
2019-05-05T07:01:33.780Z,6.90
2019-05-05T07:04:03.495Z,7.10
2019-05-05T07:06:34.225Z,7.20
2019-05-05T07:09:02.310Z,7.10
2019-05-05T07:11:30.886Z,7.20
2019-05-05T07:13:59.426Z,7.50
2019-05-05T07:16:27.997Z,7.40
2019-05-05T07:18:56.541Z,7.50
2019-05-05T07:21:25.118Z,7.30
2019-05-05T07:23:54.040Z,7.20
2019-05-05T07:26:23.782Z,7.00
2019-05-05T07:28:54.117Z,6.90
2019-05-05T07:31:23.828Z,6.80
2019-05-05T07:33:54.480Z,6.90
2019-05-05T07:36:34.180Z,6.80
2019-05-05T07:39:03.844Z,6.80
2019-05-05T07:41:34.094Z,6.80
2019-05-05T07:44:04.796Z,6.80
2019-05-05T07:49:03.956Z,7.00
2019-05-05T07:51:33.584Z,6.90
2019-05-05T07:54:03.792Z,6.90
2019-05-05T07:56:34.409Z,6.90
2019-05-05T07:59:03.771Z,6.90
2019-05-05T08:01:33.707Z,6.90
2019-05-05T08:04:04.547Z,7.00
2019-05-05T08:06:33.947Z,7.10
2019-05-05T08:09:04.409Z,7.20
2019-05-05T08:11:34.306Z,7.30
2019-05-05T08:14:04.023Z,7.30
2019-05-05T08:21:55.243Z,7.50
2019-05-05T08:24:28.407Z,7.50
2019-05-05T08:27:07.547Z,7.50
2019-05-05T08:32:28.898Z,7.50
2019-05-05T08:35:00.748Z,7.60
2019-05-05T08:37:27.725Z,7.70
2019-05-05T08:42:24.795Z,7.90
2019-05-05T08:44:53.896Z,7.90
2019-05-05T08:47:24.461Z,7.60
2019-05-05T08:49:53.754Z,7.60
2019-05-05T08:52:23.863Z,7.60
2019-05-05T08:54:54.180Z,7.60
2019-05-05T08:57:23.631Z,7.60
2019-05-05T08:59:54.338Z,7.50
2019-05-05T09:02:23.944Z,7.50
2019-05-05T09:04:53.801Z,7.60
2019-05-05T09:07:24.274Z,7.70
2019-05-05T09:09:54.697Z,7.70
2019-05-05T09:12:23.613Z,7.70
2019-05-05T09:14:53.864Z,7.60
2019-05-05T09:19:53.726Z,7.90
2019-05-05T09:22:24.462Z,7.90
2019-05-05T09:24:57.161Z,7.80
2019-05-05T09:27:30.294Z,7.70
2019-05-05T09:29:58.867Z,7.80
2019-05-05T09:32:27.546Z,8.30
2019-05-05T09:34:56.186Z,7.60
2019-05-05T09:37:25.073Z,7.40
2019-05-05T09:39:54.166Z,7.50
2019-05-05T09:42:23.600Z,7.60
2019-05-05T09:44:54.024Z,7.70
2019-05-05T09:47:24.051Z,7.70
2019-05-05T09:49:54.809Z,7.70
2019-05-05T09:52:24.381Z,7.80
2019-05-05T09:54:54.463Z,7.90
2019-05-05T09:57:23.705Z,8.00
2019-05-05T09:59:54.312Z,8.10
2019-05-05T10:02:23.949Z,8.10
2019-05-05T10:04:54.590Z,8.00
2019-05-05T10:17:19.370Z,8.30
2019-05-05T10:19:47.914Z,8.60
2019-05-05T10:22:17.386Z,8.40
2019-05-05T10:24:47.574Z,8.30
2019-05-05T10:27:16.145Z,8.30
2019-05-05T10:29:44.685Z,8.40
2019-05-05T10:32:13.815Z,8.50
2019-05-05T10:34:43.966Z,8.70
2019-05-05T10:37:14.265Z,8.50
2019-05-05T10:39:44.683Z,8.50
2019-05-05T10:42:14.450Z,8.40
2019-05-05T10:44:44.566Z,8.60
2019-05-05T10:47:13.744Z,8.40
2019-05-05T10:49:44.204Z,8.50
2019-05-05T10:52:14.205Z,8.60
2019-05-05T10:54:44.831Z,8.60
2019-05-05T10:57:14.482Z,8.80
2019-05-05T10:59:43.580Z,8.90
2019-05-05T11:04:44.229Z,8.90
2019-05-05T11:07:14.556Z,8.90
2019-05-05T11:09:44.370Z,8.80
2019-05-05T11:12:14.331Z,8.90
2019-05-05T11:14:44.306Z,8.90
2019-05-05T11:17:14.380Z,8.50
2019-05-05T11:19:44.096Z,8.70
2019-05-05T11:22:14.652Z,8.90
2019-05-05T11:24:56.737Z,8.90
2019-05-05T11:32:46.255Z,9.30
2019-05-05T11:35:14.803Z,8.90
2019-05-05T11:42:42.287Z,9.40
2019-05-05T11:45:11.170Z,9.30
2019-05-05T11:47:39.809Z,9.80
2019-05-05T11:50:08.486Z,9.60
2019-05-05T11:52:37.065Z,9.50
2019-05-05T11:57:35.574Z,9.30
2019-05-05T12:00:07.365Z,9.20
2019-05-05T12:02:35.938Z,8.80
2019-05-05T12:05:05.922Z,8.80
2019-05-05T12:07:34.497Z,8.60
2019-05-05T12:12:33.684Z,8.50
2019-05-05T12:20:06.802Z,8.40
2019-05-05T12:22:35.377Z,8.30
2019-05-05T12:25:06.713Z,8.50
2019-05-05T12:27:40.005Z,8.30
2019-05-05T12:30:09.157Z,8.80
2019-05-05T12:32:37.734Z,8.60
2019-05-05T12:35:06.378Z,8.60
2019-05-05T12:37:34.922Z,8.60
2019-05-05T12:47:51.263Z,9.30
2019-05-05T12:50:20.141Z,9.30
2019-05-05T12:52:48.686Z,9.10
2019-05-05T12:55:17.263Z,9.10
2019-05-05T12:57:45.874Z,9.20
2019-05-05T13:00:15.858Z,9.10
2019-05-05T13:02:44.475Z,9.40
2019-05-05T13:05:14.460Z,9.40
2019-05-05T13:07:44.133Z,8.90
2019-05-05T13:10:15.854Z,8.90
2019-05-05T13:12:44.401Z,8.80
2019-05-05T13:15:14.379Z,8.90
2019-05-05T13:17:43.761Z,8.80
2019-05-05T13:22:47.470Z,8.90
2019-05-05T13:25:23.134Z,8.60
2019-05-05T13:27:52.149Z,9.00
2019-05-05T13:30:20.858Z,9.00
2019-05-05T13:32:49.474Z,8.90
2019-05-05T13:35:18.185Z,9.20
2019-05-05T13:37:46.798Z,9.50
2019-05-05T13:40:16.779Z,9.00
2019-05-05T13:45:27.538Z,9.30
2019-05-05T13:47:56.150Z,9.40
2019-05-05T13:50:29.358Z,9.30
2019-05-05T13:52:57.901Z,9.50
2019-05-05T13:55:26.477Z,9.40
2019-05-05T13:57:55.090Z,9.40
2019-05-05T14:00:25.625Z,9.60
2019-05-05T14:02:54.549Z,9.50
2019-05-05T14:10:23.643Z,9.30
2019-05-05T14:12:52.414Z,9.30
2019-05-05T14:15:21.161Z,9.40
2019-05-05T14:17:49.769Z,9.10
2019-05-05T14:20:18.782Z,9.30
2019-05-05T14:22:47.494Z,9.20
2019-05-05T14:25:17.848Z,9.30
2019-05-05T14:27:46.394Z,9.10
2019-05-05T14:30:20.457Z,8.80
2019-05-05T14:32:49.094Z,8.70
2019-05-05T14:35:34.093Z,8.90
2019-05-05T14:38:06.394Z,8.80
2019-05-05T14:40:34.969Z,8.80
2019-05-05T14:45:33.992Z,8.90
2019-05-05T14:48:03.974Z,9.00
2019-05-05T14:50:34.592Z,8.70
2019-05-05T14:53:04.058Z,8.80
2019-05-05T14:55:33.604Z,8.90
2019-05-05T14:58:03.967Z,9.10
2019-05-05T15:00:33.701Z,9.20
2019-05-05T15:03:03.728Z,9.00
2019-05-05T15:05:46.001Z,9.30
2019-05-05T15:11:04.105Z,9.10
2019-05-05T15:13:33.608Z,9.60
2019-05-05T15:16:04.006Z,9.60
2019-05-05T15:18:34.611Z,9.50
2019-05-05T15:21:02.920Z,9.60
2019-05-05T15:23:31.472Z,9.80
2019-05-05T15:26:00.109Z,9.50
2019-05-05T15:28:28.653Z,9.40
2019-05-05T15:30:57.237Z,9.70
2019-05-05T15:33:25.789Z,9.40
2019-05-05T15:38:24.335Z,9.60
2019-05-05T15:40:54.673Z,9.50
2019-05-05T15:43:24.273Z,9.60
2019-05-05T15:48:22.902Z,9.40
2019-05-05T15:50:51.517Z,9.40
2019-05-05T15:53:20.226Z,9.40
2019-05-05T15:55:48.778Z,9.60
2019-05-05T15:58:20.676Z,9.20
2019-05-05T16:00:47.542Z,9.20
2019-05-05T16:05:44.409Z,9.60
2019-05-05T16:08:14.107Z,9.60
2019-05-05T16:10:43.998Z,9.60
2019-05-05T16:13:13.873Z,9.60
2019-05-05T16:15:44.130Z,9.60
2019-05-05T16:18:23.601Z,9.60
2019-05-05T16:20:54.621Z,9.60
2019-05-05T16:23:35.934Z,9.40
2019-05-05T16:26:04.782Z,9.60
2019-05-05T16:28:34.288Z,9.50
2019-05-05T16:31:05.247Z,9.50
2019-05-05T16:33:33.497Z,9.40
2019-05-05T16:36:02.146Z,9.30
2019-05-05T16:38:30.718Z,9.20
2019-05-05T16:40:59.404Z,9.30
2019-05-05T16:48:25.778Z,8.90
2019-05-05T16:53:38.560Z,9.00
2019-05-05T16:56:10.317Z,9.00
2019-05-05T16:58:38.958Z,9.10
2019-05-05T17:01:09.158Z,9.30
2019-05-05T17:03:37.733Z,9.20
2019-05-05T17:08:34.526Z,9.20
2019-05-05T17:11:03.103Z,8.90
2019-05-05T17:13:36.289Z,9.10
2019-05-05T17:16:21.357Z,9.20
2019-05-05T17:19:04.434Z,9.00
2019-05-05T17:21:34.843Z,8.70
2019-05-05T17:24:03.391Z,9.50
2019-05-05T17:26:32.706Z,8.90
2019-05-05T17:29:01.280Z,9.10
2019-05-05T17:31:29.901Z,8.90
2019-05-05T17:33:58.503Z,8.90
2019-05-05T17:38:55.373Z,9.00
2019-05-05T17:41:25.698Z,8.90
2019-05-05T17:43:55.986Z,8.80
2019-05-05T17:46:26.243Z,9.00
2019-05-05T17:48:56.461Z,8.70
2019-05-05T17:51:35.823Z,8.70
2019-05-05T17:54:06.126Z,9.10
2019-05-05T17:56:34.704Z,9.10
2019-05-05T17:59:03.588Z,8.90
2019-05-05T18:01:33.597Z,8.60
2019-05-05T18:06:34.413Z,8.80
2019-05-05T18:09:20.842Z,8.70
2019-05-05T18:11:57.273Z,8.30
2019-05-05T18:14:45.354Z,9.00
2019-05-05T18:17:13.929Z,8.40
2019-05-05T18:19:43.582Z,8.20
2019-05-05T18:22:13.886Z,8.40
2019-05-05T18:24:44.435Z,8.30
2019-05-05T18:27:14.105Z,8.10
2019-05-05T18:29:43.625Z,8.20
2019-05-05T18:32:13.869Z,8.20
2019-05-05T18:34:42.554Z,7.90
2019-05-05T18:37:11.166Z,7.90
2019-05-05T18:44:47.987Z,7.70
2019-05-05T18:47:18.767Z,7.60
2019-05-05T18:57:12.710Z,7.40
2019-05-05T18:59:41.297Z,7.20
2019-05-05T19:02:11.623Z,7.30
2019-05-05T19:04:41.818Z,7.10
2019-05-05T19:07:12.030Z,6.90
2019-05-05T19:09:51.187Z,6.90
2019-05-05T19:14:39.021Z,6.60
2019-05-05T19:19:37.223Z,6.50
2019-05-05T19:22:07.502Z,6.70
2019-05-05T19:24:36.120Z,6.60
2019-05-05T19:27:04.761Z,6.60
2019-05-05T19:29:33.301Z,6.80
2019-05-05T19:32:03.992Z,6.60
2019-05-05T19:39:34.300Z,6.30
2019-05-05T19:42:04.663Z,6.20
2019-05-05T19:47:05.876Z,6.90
2019-05-05T19:52:05.688Z,6.70
2019-05-05T19:54:34.043Z,6.30
2019-05-05T19:57:04.549Z,5.90
2019-05-05T19:59:35.432Z,6.20
2019-05-05T20:02:03.708Z,6.00
2019-05-05T20:07:04.256Z,6.00
2019-05-05T20:14:34.235Z,5.80
2019-05-05T20:19:34.886Z,5.80
2019-05-05T20:22:03.598Z,5.60
2019-05-05T20:24:33.750Z,5.80
2019-05-05T20:37:10.244Z,5.60
2019-05-05T20:47:04.627Z,5.70
2019-05-05T20:52:03.711Z,5.60
2019-05-05T20:57:00.740Z,5.60
2019-05-05T21:06:55.713Z,5.40
2019-05-05T21:11:54.819Z,5.20
2019-05-05T21:14:31.971Z,5.30
2019-05-05T21:19:24.756Z,4.90
2019-05-05T21:21:55.084Z,5.50
2019-05-05T21:24:24.044Z,5.70
2019-05-05T21:29:23.670Z,5.10
2019-05-05T21:39:17.151Z,4.70
2019-05-05T21:41:45.699Z,4.70
2019-05-05T21:44:14.784Z,4.60
2019-05-05T21:49:13.664Z,4.50
2019-05-05T21:51:46.714Z,4.40
2019-05-05T21:54:25.886Z,4.30
2019-05-05T21:59:36.619Z,4.30
2019-05-05T22:19:27.122Z,4.00
2019-05-05T22:22:14.541Z,4.20
2019-05-05T22:24:44.408Z,3.90
2019-05-05T22:29:41.061Z,3.90
2019-05-05T22:34:37.853Z,3.60
2019-05-05T22:39:36.357Z,4.00
2019-05-05T22:42:04.970Z,4.00
2019-05-05T22:44:33.961Z,3.50
2019-05-05T22:54:29.139Z,3.70
2019-05-05T22:59:26.209Z,3.70
2019-05-05T23:01:54.806Z,3.50
2019-05-05T23:12:06.533Z,3.30
2019-05-05T23:14:35.073Z,3.20
2019-05-05T23:17:14.198Z,3.20
2019-05-05T23:22:17.455Z,3.10
2019-05-05T23:25:04.115Z,3.00
2019-05-05T23:27:48.736Z,3.00
2019-05-05T23:30:20.013Z,2.90
2019-05-05T23:35:17.885Z,3.10
2019-05-05T23:45:15.785Z,3.00
2019-05-05T23:47:44.795Z,3.00
2019-05-05T23:57:38.456Z,3.00
